Time;durP1;ratioP1;P1;durP2;ratioP2;P2;SDS_P1;SDS_P2;PMS_P1;PMS_P2;Temp;Humidity;BMP_temperature;BMP_pressure;BME280_temperature;BME280_humidity;BME280_pressure;Samples;Min_cycle;Max_cycle;Signal;HPM_P1;HPM_P2
2023/08/02 00:02:19;;;;;;;3.72;1.23;;;19.40;99.90;;;;;;4935288;29;20564;-78
2023/08/02 00:04:45;;;;;;;3.38;1.33;;;19.30;99.90;;;;;;4932189;29;20109;-74
2023/08/02 00:07:11;;;;;;;2.97;0.93;;;19.30;99.90;;;;;;4933762;29;20024;-78
2023/08/02 00:09:36;;;;;;;2.00;0.80;;;19.30;99.90;;;;;;4932884;29;20036;-78
2023/08/02 00:12:05;;;;;;;5.43;1.10;;;19.20;99.90;;;;;;4933283;29;20028;-79
2023/08/02 00:14:31;;;;;;;1.77;1.27;;;19.20;99.90;;;;;;4934081;29;20054;-77
2023/08/02 00:16:57;;;;;;;1.85;1.00;;;19.20;99.90;;;;;;4932554;29;20023;-77
2023/08/02 00:19:23;;;;;;;1.42;0.82;;;19.30;99.90;;;;;;4917506;29;20111;-78
2023/08/02 00:21:49;;;;;;;4.22;1.10;;;19.20;99.90;;;;;;4936966;29;20043;-78
2023/08/02 00:24:14;;;;;;;1.33;0.88;;;19.30;99.90;;;;;;4919121;29;20127;-76
2023/08/02 00:26:40;;;;;;;1.60;0.80;;;19.10;99.90;;;;;;4937071;29;20112;-78
2023/08/02 00:29:06;;;;;;;0.70;0.70;;;19.10;99.90;;;;;;4937830;29;20019;-74
2023/08/02 00:31:32;;;;;;;1.48;0.80;;;19.10;99.90;;;;;;4938254;29;20338;-76
2023/08/02 00:33:58;;;;;;;1.75;1.10;;;19.10;99.90;;;;;;4938857;29;20024;-74
2023/08/02 00:36:24;;;;;;;1.95;0.98;;;19.10;99.90;;;;;;4936158;29;20028;-72
2023/08/02 00:38:50;;;;;;;2.00;0.93;;;19.10;99.90;;;;;;4937291;29;20082;-77
2023/08/02 00:41:16;;;;;;;2.13;1.00;;;19.00;99.90;;;;;;4919468;29;20032;-75
2023/08/02 00:43:44;;;;;;;5.65;0.98;;;19.10;99.90;;;;;;4919748;29;20190;-74
2023/08/02 00:46:12;;;;;;;3.38;1.35;;;19.20;99.90;;;;;;4936961;29;20381;-74
2023/08/02 00:48:38;;;;;;;1.05;0.85;;;19.30;99.90;;;;;;4938960;29;20388;-78
2023/08/02 00:51:05;;;;;;;1.25;0.88;;;19.30;99.90;;;;;;4919288;29;20488;-77
2023/08/02 00:53:31;;;;;;;1.25;0.85;;;19.20;99.90;;;;;;4917588;29;20039;-79
2023/08/02 00:55:57;;;;;;;1.67;1.02;;;19.30;99.90;;;;;;4936874;29;20024;-78
2023/08/02 00:58:24;;;;;;;2.00;1.10;;;19.30;99.90;;;;;;4931723;29;20039;-77
2023/08/02 01:00:49;;;;;;;2.40;1.17;;;19.20;99.90;;;;;;4936846;29;20529;-77
2023/08/02 01:03:15;;;;;;;4.50;0.93;;;19.20;99.90;;;;;;4919085;29;20028;-74
2023/08/02 01:05:47;;;;;;;1.05;0.80;;;19.30;99.90;;;;;;4919830;29;20034;-76
2023/08/02 01:08:22;;;;;;;1.48;0.90;;;19.30;99.90;;;;;;4932278;29;20107;-77
2023/08/02 01:11:07;;;;;;;4.80;1.30;;;19.20;99.90;;;;;;4932204;29;20024;-75
2023/08/02 01:13:35;;;;;;;1.45;1.00;;;19.20;99.90;;;;;;4934010;29;20039;-78
2023/08/02 01:16:02;;;;;;;2.63;1.00;;;19.20;99.90;;;;;;4936434;29;20705;-74
2023/08/02 01:18:28;;;;;;;1.63;0.98;;;19.10;99.90;;;;;;4936136;29;20039;-77
2023/08/02 01:20:54;;;;;;;2.22;0.90;;;19.20;99.90;;;;;;4936352;29;20086;-77
2023/08/02 01:23:20;;;;;;;2.17;1.00;;;19.10;99.90;;;;;;4936065;29;20047;-76
2023/08/02 01:25:51;;;;;;;1.05;0.70;;;19.10;99.90;;;;;;4933260;29;20475;-76
2023/08/02 01:28:23;;;;;;;2.55;0.73;;;19.10;99.90;;;;;;4936357;29;20055;-73
2023/08/02 01:30:50;;;;;;;5.35;1.15;;;19.10;99.90;;;;;;4916615;29;20058;-76
2023/08/02 01:33:17;;;;;;;2.60;0.98;;;19.20;99.90;;;;;;4916227;29;20033;-77
2023/08/02 01:35:43;;;;;;;1.40;0.60;;;19.10;99.90;;;;;;4936240;29;20032;-78
2023/08/02 01:38:09;;;;;;;0.60;0.60;;;19.10;99.90;;;;;;4935732;29;20032;-76
2023/08/02 01:40:35;;;;;;;0.63;0.47;;;19.00;99.90;;;;;;4935698;29;20023;-76
2023/08/02 01:43:01;;;;;;;0.90;0.80;;;19.00;99.90;;;;;;4918816;29;20033;-75
2023/08/02 01:45:26;;;;;;;1.83;0.80;;;19.00;99.90;;;;;;4935634;29;20035;-75
2023/08/02 01:48:01;;;;;;;0.90;0.60;;;19.10;99.90;;;;;;4918569;29;20040;-73
2023/08/02 01:50:27;;;;;;;2.58;0.75;;;19.00;99.90;;;;;;4935534;29;20615;-78
2023/08/02 01:52:53;;;;;;;2.67;1.10;;;19.10;99.90;;;;;;4935526;29;20035;-73
2023/08/02 01:55:19;;;;;;;1.48;0.60;;;19.10;99.90;;;;;;4935505;29;20032;-74
2023/08/02 01:57:45;;;;;;;1.52;0.90;;;19.20;99.90;;;;;;4935620;29;20494;-77
2023/08/02 02:00:12;;;;;;;1.73;0.95;;;19.20;99.90;;;;;;4935477;29;20052;-78
2023/08/02 02:02:42;;;;;;;1.33;0.88;;;19.20;99.90;;;;;;4916218;29;20031;-76
2023/08/02 02:05:12;;;;;;;0.70;0.60;;;19.20;99.90;;;;;;4935647;29;20039;-75
2023/08/02 02:07:38;;;;;;;2.53;0.80;;;19.20;99.90;;;;;;4931481;29;20032;-77
2023/08/02 02:10:04;;;;;;;1.35;0.80;;;19.10;99.90;;;;;;4935311;29;20107;-77
2023/08/02 02:12:30;;;;;;;1.67;0.75;;;19.20;99.90;;;;;;4935065;29;20047;-77
2023/08/02 02:14:57;;;;;;;1.52;0.80;;;19.10;99.90;;;;;;4915034;29;20024;-76
2023/08/02 02:17:23;;;;;;;3.30;1.00;;;19.10;99.90;;;;;;4934686;29;20420;-77
2023/08/02 02:19:49;;;;;;;0.98;0.65;;;19.10;99.90;;;;;;4903759;29;20099;-76
2023/08/02 02:22:14;;;;;;;2.15;1.10;;;19.10;99.90;;;;;;4917700;29;20052;-75
2023/08/02 02:24:41;;;;;;;1.58;1.00;;;19.10;99.90;;;;;;4930972;29;20031;-76
2023/08/02 02:27:09;;;;;;;3.10;0.68;;;19.10;99.90;;;;;;4913079;29;20564;-73
2023/08/02 02:29:35;;;;;;;2.95;0.93;;;19.10;99.90;;;;;;4934630;29;20031;-75
2023/08/02 02:32:01;;;;;;;0.65;0.57;;;19.10;99.90;;;;;;4935071;29;20019;-77
2023/08/02 02:34:26;;;;;;;2.30;0.95;;;19.20;99.90;;;;;;4916887;29;20039;-77
2023/08/02 02:36:53;;;;;;;1.88;0.95;;;19.30;99.90;;;;;;4915470;29;20396;-77
2023/08/02 02:39:19;;;;;;;1.52;1.02;;;19.20;99.90;;;;;;4914683;29;20036;-76
2023/08/02 02:41:44;;;;;;;4.03;1.00;;;19.10;99.90;;;;;;4933727;29;20027;-72
2023/08/02 02:44:10;;;;;;;1.55;0.70;;;19.10;99.90;;;;;;4916095;29;20047;-77
2023/08/02 02:46:36;;;;;;;2.13;0.88;;;19.10;99.90;;;;;;4933788;29;20019;-77
2023/08/02 02:49:02;;;;;;;2.55;0.77;;;19.10;99.90;;;;;;4934054;29;20154;-74
2023/08/02 02:51:28;;;;;;;2.03;0.77;;;19.20;99.90;;;;;;4934059;29;20019;-76
2023/08/02 02:53:53;;;;;;;2.67;1.10;;;19.20;99.90;;;;;;4911192;29;20028;-77
2023/08/02 02:56:19;;;;;;;2.03;0.65;;;19.10;99.90;;;;;;4916471;29;20027;-77
2023/08/02 02:58:45;;;;;;;1.27;0.80;;;19.10;99.90;;;;;;4933784;29;20039;-77
2023/08/02 03:01:14;;;;;;;1.58;0.80;;;19.00;99.90;;;;;;4916795;29;20050;-73
2023/08/02 03:03:40;;;;;;;1.02;0.63;;;19.10;99.90;;;;;;4934393;29;20087;-77
2023/08/02 03:06:05;;;;;;;1.90;0.77;;;19.10;99.90;;;;;;4934209;29;20032;-76
2023/08/02 03:08:31;;;;;;;1.83;0.63;;;19.10;99.90;;;;;;4934303;29;20044;-73
2023/08/02 03:10:57;;;;;;;2.17;0.95;;;19.20;99.90;;;;;;4934110;29;20023;-75
2023/08/02 03:13:23;;;;;;;2.30;1.00;;;19.20;99.90;;;;;;4934368;29;20027;-72
2023/08/02 03:15:49;;;;;;;1.35;0.80;;;19.20;99.90;;;;;;4917191;29;20031;-77
2023/08/02 03:18:15;;;;;;;2.30;0.98;;;19.30;99.90;;;;;;4933809;29;20027;-78
2023/08/02 03:20:41;;;;;;;1.80;1.13;;;19.40;99.90;;;;;;4933324;29;20583;-77
2023/08/02 03:23:08;;;;;;;1.10;0.85;;;19.50;99.90;;;;;;4934577;29;20055;-77
2023/08/02 03:25:35;;;;;;;3.55;1.30;;;19.60;99.90;;;;;;4937281;29;20106;-77
2023/08/02 03:28:02;;;;;;;1.52;0.95;;;19.60;99.90;;;;;;4933751;29;20046;-76
2023/08/02 03:30:27;;;;;;;3.63;1.00;;;19.70;99.90;;;;;;4933721;29;20030;-76
2023/08/02 03:32:54;;;;;;;3.25;0.90;;;19.60;99.90;;;;;;4916920;29;20462;-74
2023/08/02 03:35:20;;;;;;;1.15;0.80;;;19.60;99.90;;;;;;4934027;29;20476;-75
2023/08/02 03:37:45;;;;;;;1.80;0.80;;;19.60;99.90;;;;;;4933611;29;20034;-74
2023/08/02 03:40:11;;;;;;;3.78;0.95;;;19.60;99.90;;;;;;4933985;29;20562;-76
2023/08/02 03:42:37;;;;;;;1.25;0.88;;;19.70;99.90;;;;;;4933337;29;20016;-76
2023/08/02 03:45:03;;;;;;;2.95;1.00;;;19.80;99.90;;;;;;4933672;29;20039;-74
2023/08/02 03:47:29;;;;;;;1.23;0.90;;;19.80;99.90;;;;;;4933833;29;20027;-72
2023/08/02 03:49:55;;;;;;;0.82;0.82;;;19.80;99.90;;;;;;4933528;29;20040;-77
2023/08/02 03:52:24;;;;;;;2.95;1.10;;;19.90;99.90;;;;;;4933361;29;20027;-79
2023/08/02 03:54:50;;;;;;;1.10;0.77;;;19.90;99.90;;;;;;4932949;29;20039;-77
2023/08/02 03:57:15;;;;;;;0.90;0.77;;;19.90;99.90;;;;;;4933780;29;20024;-77
2023/08/02 03:59:41;;;;;;;1.25;0.70;;;19.90;99.90;;;;;;4933361;29;20403;-75
2023/08/02 04:02:07;;;;;;;1.70;0.90;;;19.90;99.90;;;;;;4933597;29;20388;-76
2023/08/02 04:04:33;;;;;;;1.40;0.88;;;19.90;99.90;;;;;;4930808;29;20091;-73
2023/08/02 04:06:59;;;;;;;2.80;1.05;;;19.90;99.90;;;;;;4915171;29;20024;-75
2023/08/02 04:09:24;;;;;;;1.00;0.73;;;20.00;99.90;;;;;;4928175;29;20027;-77
2023/08/02 04:11:50;;;;;;;2.42;1.35;;;20.00;99.90;;;;;;4934693;29;20465;-76
2023/08/02 04:14:16;;;;;;;3.22;0.70;;;20.00;99.90;;;;;;4934842;29;20492;-73
2023/08/02 04:16:42;;;;;;;4.47;1.00;;;20.10;99.90;;;;;;4934490;29;20476;-74
2023/08/02 04:19:07;;;;;;;2.10;1.02;;;20.00;99.90;;;;;;4923850;29;20123;-73
2023/08/02 04:21:33;;;;;;;2.50;1.40;;;20.10;99.90;;;;;;4940025;29;20049;-76
2023/08/02 04:24:00;;;;;;;3.50;1.17;;;20.10;99.90;;;;;;4908550;29;20107;-75
2023/08/02 04:26:26;;;;;;;1.75;0.95;;;20.00;99.90;;;;;;4915298;29;20028;-78
2023/08/02 04:29:03;;;;;;;2.05;0.82;;;19.90;99.90;;;;;;4916423;29;20335;-73
2023/08/02 04:31:29;;;;;;;3.65;1.05;;;19.80;99.90;;;;;;4911189;29;20089;-76
2023/08/02 04:33:56;;;;;;;4.32;1.20;;;19.80;99.90;;;;;;4915752;29;20453;-77
2023/08/02 04:36:22;;;;;;;1.52;0.90;;;19.70;99.90;;;;;;4917134;29;20035;-72
2023/08/02 04:38:47;;;;;;;1.35;1.00;;;19.70;99.90;;;;;;4912451;29;20032;-78
2023/08/02 04:41:16;;;;;;;0.80;0.68;;;19.70;99.90;;;;;;4913907;29;20921;-76
2023/08/02 04:43:42;;;;;;;1.85;0.95;;;19.60;99.90;;;;;;4914248;29;20032;-73
2023/08/02 04:46:08;;;;;;;2.30;1.10;;;19.60;99.90;;;;;;4915410;29;20043;-76
2023/08/02 04:48:34;;;;;;;3.40;0.90;;;19.50;99.90;;;;;;4898113;29;20044;-77
2023/08/02 04:51:06;;;;;;;1.80;0.98;;;19.50;99.90;;;;;;4915484;29;20024;-75
2023/08/02 04:53:32;;;;;;;2.22;1.08;;;19.40;99.90;;;;;;4915501;29;20039;-77
2023/08/02 04:55:58;;;;;;;2.97;1.38;;;19.40;99.90;;;;;;4915474;29;20032;-73
2023/08/02 04:58:23;;;;;;;4.93;1.48;;;19.40;99.90;;;;;;4915483;29;20032;-77
2023/08/02 05:00:49;;;;;;;1.95;1.25;;;19.40;99.90;;;;;;4915331;29;20468;-77
2023/08/02 05:03:15;;;;;;;2.83;1.42;;;19.40;99.90;;;;;;4915495;29;20024;-76
2023/08/02 05:05:41;;;;;;;2.20;0.80;;;19.50;99.90;;;;;;4918042;29;20572;-77
2023/08/02 05:08:07;;;;;;;2.30;1.27;;;19.60;99.90;;;;;;4919556;29;20040;-74
2023/08/02 05:10:32;;;;;;;3.45;1.00;;;19.70;99.90;;;;;;4901762;29;20084;-74
2023/08/02 05:13:04;;;;;;;3.85;1.60;;;19.80;99.90;;;;;;4923777;29;20039;-77
2023/08/02 05:15:35;;;;;;;3.47;1.30;;;19.90;99.90;;;;;;4922411;29;20425;-77
2023/08/02 05:18:01;;;;;;;2.42;1.00;;;20.00;99.90;;;;;;4915951;29;20103;-74
2023/08/02 05:20:33;;;;;;;2.35;1.30;;;20.10;99.90;;;;;;4916337;29;20031;-78
2023/08/02 05:22:59;;;;;;;4.55;1.00;;;20.30;99.90;;;;;;4916039;29;20042;-77
2023/08/02 05:25:32;;;;;;;2.35;1.27;;;20.30;99.90;;;;;;4911870;29;20020;-73
2023/08/02 05:27:59;;;;;;;3.17;1.40;;;20.30;99.90;;;;;;4915802;29;20036;-76
2023/08/02 05:30:27;;;;;;;4.70;1.40;;;20.40;99.90;;;;;;4918020;29;20087;-76
2023/08/02 05:32:54;;;;;;;2.05;1.27;;;20.40;99.90;;;;;;4912926;29;20055;-76
2023/08/02 05:35:20;;;;;;;2.60;1.45;;;20.40;99.90;;;;;;4909622;29;20067;-77
2023/08/02 05:37:46;;;;;;;2.25;1.10;;;20.30;99.90;;;;;;4913522;29;20042;-77
2023/08/02 05:40:12;;;;;;;4.38;1.25;;;20.40;99.90;;;;;;4916145;29;20559;-75
2023/08/02 05:42:38;;;;;;;3.78;1.80;;;20.40;99.90;;;;;;4918684;29;20461;-77
2023/08/02 05:45:04;;;;;;;5.05;2.30;;;20.50;99.90;;;;;;4914785;29;20039;-77
2023/08/02 05:47:30;;;;;;;4.68;2.70;;;20.50;99.90;;;;;;4915456;29;20027;-74
2023/08/02 05:49:56;;;;;;;6.68;3.08;;;20.50;99.90;;;;;;4915874;29;20024;-73
2023/08/02 05:52:22;;;;;;;8.23;3.85;;;20.50;99.90;;;;;;4915248;29;20476;-73
2023/08/02 05:54:48;;;;;;;7.30;3.67;;;20.50;99.90;;;;;;4915481;29;20465;-72
2023/08/02 05:57:14;;;;;;;8.35;3.45;;;20.50;99.90;;;;;;4917466;29;20075;-72
2023/08/02 05:59:40;;;;;;;7.43;3.80;;;20.50;99.90;;;;;;4915126;29;20097;-76
2023/08/02 06:02:07;;;;;;;6.22;3.38;;;20.50;99.90;;;;;;4915229;29;20047;-77
2023/08/02 06:04:38;;;;;;;7.68;2.95;;;20.50;99.90;;;;;;4915054;29;20024;-72
2023/08/02 06:07:04;;;;;;;4.65;2.25;;;20.50;99.90;;;;;;4913651;29;20063;-73
2023/08/02 06:09:30;;;;;;;5.00;2.20;;;20.40;99.90;;;;;;4911962;29;20039;-78
2023/08/02 06:11:56;;;;;;;3.75;2.30;;;20.40;99.90;;;;;;4916809;29;20035;-77
2023/08/02 06:14:22;;;;;;;4.55;2.17;;;20.50;99.90;;;;;;4918001;29;20039;-77
2023/08/02 06:16:48;;;;;;;2.38;1.60;;;20.50;99.90;;;;;;4916452;29;20393;-74
2023/08/02 06:19:14;;;;;;;5.40;2.20;;;20.50;99.90;;;;;;4917657;29;20035;-73
2023/08/02 06:21:40;;;;;;;5.18;2.00;;;20.50;99.90;;;;;;4917093;28;20036;-73
2023/08/02 06:24:07;;;;;;;3.40;1.80;;;20.60;99.90;;;;;;4915288;29;20020;-78
2023/08/02 06:26:33;;;;;;;4.03;1.73;;;20.70;99.90;;;;;;4909335;29;20068;-76
2023/08/02 06:29:00;;;;;;;7.38;3.80;;;20.70;99.90;;;;;;4916794;29;20139;-73
2023/08/02 06:31:25;;;;;;;5.07;3.25;;;20.80;99.90;;;;;;4914519;29;20601;-73
2023/08/02 06:33:51;;;;;;;5.28;2.53;;;21.00;99.90;;;;;;4917590;29;20091;-76
2023/08/02 06:36:17;;;;;;;6.78;3.15;;;21.20;99.90;;;;;;4917179;29;20465;-77
2023/08/02 06:38:47;;;;;;;11.73;5.82;;;21.20;99.90;;;;;;4915809;29;20046;-77
2023/08/02 06:41:13;;;;;;;4.65;2.08;;;21.40;99.90;;;;;;4916420;29;20028;-77
2023/08/02 06:43:39;;;;;;;2.70;1.50;;;21.50;99.90;;;;;;4915389;29;20500;-75
2023/08/02 06:46:05;;;;;;;2.47;1.10;;;21.60;99.90;;;;;;4916084;29;20487;-77
2023/08/02 06:48:31;;;;;;;4.93;1.48;;;21.70;99.90;;;;;;4916347;29;20035;-73
2023/08/02 06:50:57;;;;;;;3.15;1.58;;;21.90;99.90;;;;;;4915919;29;20035;-77
2023/08/02 06:53:23;;;;;;;5.10;1.60;;;21.90;99.90;;;;;;4917010;29;20024;-77
2023/08/02 06:55:49;;;;;;;3.05;1.20;;;22.00;99.90;;;;;;4924899;29;20087;-75
2023/08/02 06:58:15;;;;;;;4.28;1.48;;;21.90;99.90;;;;;;4919971;29;20374;-77
2023/08/02 07:00:41;;;;;;;3.35;1.33;;;22.00;99.90;;;;;;4907663;29;20065;-76
2023/08/02 07:03:07;;;;;;;3.28;1.48;;;22.10;99.90;;;;;;4912791;29;20027;-76
2023/08/02 07:05:34;;;;;;;6.75;1.30;;;22.20;99.90;;;;;;4916201;29;20563;-73
2023/08/02 07:08:02;;;;;;;1.83;1.30;;;22.40;99.90;;;;;;4916921;29;20036;-74
2023/08/02 07:10:28;;;;;;;2.55;1.25;;;22.30;99.90;;;;;;4917147;29;20499;-74
2023/08/02 07:12:55;;;;;;;2.85;1.10;;;22.30;99.90;;;;;;4916990;29;20361;-72
2023/08/02 07:15:21;;;;;;;3.47;1.33;;;22.40;99.90;;;;;;4916667;29;20032;-75
2023/08/02 07:17:59;;;;;;;5.63;1.45;;;22.30;99.90;;;;;;4917428;29;20024;-75
2023/08/02 07:20:25;;;;;;;3.03;1.40;;;22.40;99.90;;;;;;4916451;29;20044;-72
2023/08/02 07:22:51;;;;;;;3.55;1.65;;;22.30;99.90;;;;;;4917132;29;20306;-75
2023/08/02 07:25:20;;;;;;;3.72;1.55;;;22.40;99.90;;;;;;4914405;29;20039;-75
2023/08/02 07:27:46;;;;;;;4.57;2.08;;;22.40;99.90;;;;;;4879564;29;20489;-77
2023/08/02 07:30:12;;;;;;;4.85;1.80;;;22.50;99.90;;;;;;4906018;29;20091;-76
2023/08/02 07:32:38;;;;;;;2.33;1.38;;;22.30;99.90;;;;;;4909448;29;20025;-75
2023/08/02 07:35:04;;;;;;;6.00;1.83;;;22.60;99.90;;;;;;4900852;29;20473;-75
2023/08/02 07:37:30;;;;;;;4.22;1.80;;;22.70;99.90;;;;;;4909506;29;20477;-74
2023/08/02 07:39:56;;;;;;;4.40;1.70;;;23.00;99.90;;;;;;4908585;29;20032;-76
2023/08/02 07:42:22;;;;;;;3.63;1.30;;;22.90;99.90;;;;;;4906331;29;20036;-76
2023/08/02 07:45:06;;;;;;;1.88;1.48;;;23.10;99.90;;;;;;4906545;29;20111;-74
2023/08/02 07:47:32;;;;;;;1.98;1.15;;;23.20;99.90;;;;;;4910289;29;20047;-75
2023/08/02 07:49:58;;;;;;;4.28;1.20;;;23.20;99.90;;;;;;4915952;29;20156;-72
2023/08/02 07:52:24;;;;;;;2.63;1.35;;;23.00;99.90;;;;;;4917010;29;20107;-75
2023/08/02 07:54:54;;;;;;;6.10;1.58;;;23.10;99.90;;;;;;4909630;29;20029;-73
2023/08/02 07:57:22;;;;;;;2.38;1.58;;;23.20;99.90;;;;;;4906308;29;20549;-73
2023/08/02 07:59:47;;;;;;;3.25;1.23;;;23.70;99.90;;;;;;4909701;29;20089;-76
2023/08/02 08:02:13;;;;;;;1.88;1.33;;;24.10;99.90;;;;;;4897017;29;20150;-72
2023/08/02 08:04:39;;;;;;;3.20;1.70;;;24.30;99.90;;;;;;4905804;29;20426;-75
2023/08/02 08:07:05;;;;;;;3.15;1.40;;;24.30;99.90;;;;;;4910054;29;20031;-75
2023/08/02 08:09:31;;;;;;;2.97;1.08;;;24.60;99.90;;;;;;4912170;29;20469;-71
2023/08/02 08:11:57;;;;;;;3.25;1.70;;;24.30;99.90;;;;;;4916816;29;20410;-74
2023/08/02 08:14:24;;;;;;;1.33;0.93;;;24.30;99.90;;;;;;4915865;29;20064;-72
2023/08/02 08:16:49;;;;;;;3.10;1.40;;;24.50;99.90;;;;;;4914915;29;20024;-76
2023/08/02 08:19:16;;;;;;;2.75;1.23;;;24.70;99.90;;;;;;4915478;29;20028;-73
2023/08/02 08:21:41;;;;;;;1.20;1.05;;;24.60;99.90;;;;;;4915470;29;20132;-77
2023/08/02 08:24:09;;;;;;;1.48;1.00;;;24.70;99.90;;;;;;4915297;29;20063;-73
2023/08/02 08:26:34;;;;;;;2.13;1.23;;;24.60;99.90;;;;;;4915883;29;20040;-73
2023/08/02 08:29:00;;;;;;;1.58;1.00;;;24.30;99.90;;;;;;4915481;29;20020;-74
2023/08/02 08:31:28;;;;;;;1.50;1.08;;;24.60;99.90;;;;;;4915860;29;20091;-77
2023/08/02 08:33:54;;;;;;;3.72;1.13;;;24.70;99.90;;;;;;4915286;29;20476;-77
2023/08/02 08:36:21;;;;;;;1.85;1.00;;;24.60;99.90;;;;;;4915100;29;20043;-76
2023/08/02 08:38:47;;;;;;;1.20;0.90;;;24.60;99.90;;;;;;4915637;29;20040;-73
2023/08/02 08:41:14;;;;;;;2.05;1.10;;;24.60;99.90;;;;;;4919265;29;20028;-76
2023/08/02 08:43:40;;;;;;;3.65;1.00;;;24.70;99.90;;;;;;4919372;29;20041;-72
2023/08/02 08:46:07;;;;;;;1.75;1.40;;;24.60;99.90;;;;;;4919434;29;20036;-77
2023/08/02 08:48:36;;;;;;;1.17;0.68;;;24.80;99.90;;;;;;4899192;29;20401;-73
2023/08/02 08:51:03;;;;;;;1.00;0.90;;;24.50;99.90;;;;;;4915675;29;20028;-74
2023/08/02 08:53:34;;;;;;;1.27;0.90;;;24.50;99.90;;;;;;4919374;29;20127;-77
2023/08/02 08:56:02;;;;;;;2.25;0.80;;;24.30;99.90;;;;;;4919010;29;20028;-74
2023/08/02 08:58:29;;;;;;;1.65;0.93;;;24.60;99.90;;;;;;4919057;29;20712;-77
2023/08/02 09:00:55;;;;;;;2.53;1.33;;;24.60;99.90;;;;;;4918961;29;20115;-75
2023/08/02 09:03:21;;;;;;;1.25;0.95;;;25.00;99.90;;;;;;4918915;29;20513;-78
2023/08/02 09:05:46;;;;;;;2.83;1.00;;;25.40;99.90;;;;;;4918804;29;20020;-78
2023/08/02 09:08:12;;;;;;;1.42;0.82;;;25.30;99.90;;;;;;4918693;29;20028;-74
2023/08/02 09:10:39;;;;;;;1.30;0.60;;;25.30;99.90;;;;;;4919001;29;20099;-76
2023/08/02 09:13:05;;;;;;;3.17;0.80;;;25.80;99.90;;;;;;4919055;29;20036;-78
2023/08/02 09:15:31;;;;;;;2.28;0.70;;;26.40;99.90;;;;;;4918790;29;20099;-74
2023/08/02 09:17:58;;;;;;;1.23;0.65;;;26.70;99.90;;;;;;4918567;29;20103;-76
2023/08/02 09:20:27;;;;;;;2.80;0.75;;;26.70;99.90;;;;;;4918274;29;20032;-76
2023/08/02 09:22:53;;;;;;;2.15;0.45;;;26.80;97.50;;;;;;4918664;29;20113;-79
2023/08/02 09:25:24;;;;;;;1.83;0.80;;;26.70;99.10;;;;;;4918413;29;20036;-77
2023/08/02 09:27:52;;;;;;;0.65;0.47;;;26.60;96.10;;;;;;4918737;29;20063;-74
2023/08/02 09:30:26;;;;;;;1.40;0.60;;;26.70;96.10;;;;;;4918174;29;20024;-76
2023/08/02 09:33:02;;;;;;;2.50;0.88;;;26.20;96.10;;;;;;4918106;29;20040;-73
2023/08/02 09:35:32;;;;;;;1.17;0.65;;;26.20;96.00;;;;;;4918687;29;20048;-76
2023/08/02 09:37:58;;;;;;;2.78;0.82;;;25.70;97.40;;;;;;4893089;29;20112;-77
2023/08/02 09:40:38;;;;;;;1.85;0.95;;;26.20;98.00;;;;;;4896938;29;20158;-78
2023/08/02 09:43:08;;;;;;;1.77;0.88;;;26.60;98.60;;;;;;4912018;29;20031;-73
2023/08/02 09:45:35;;;;;;;1.02;0.45;;;26.80;98.50;;;;;;4913172;29;20036;-72
2023/08/02 09:48:02;;;;;;;1.10;0.70;;;27.10;97.70;;;;;;4918303;29;20035;-78
2023/08/02 09:51:31;;;;;;;;;;;;;;;;;;;;;
2023/08/02 09:54:23;;;;;;;1.55;0.68;;;27.10;97.70;;;;;;4876096;29;20135;-73
2023/08/02 09:56:50;;;;;;;1.13;0.70;;;27.40;99.90;;;;;;4878054;29;20123;-73
2023/08/02 09:59:18;;;;;;;1.38;0.85;;;27.40;94.50;;;;;;4875797;29;20592;-72
2023/08/02 10:01:47;;;;;;;1.77;0.85;;;27.50;94.30;;;;;;4878950;29;20029;-72
2023/08/02 10:04:15;;;;;;;1.40;0.88;;;27.60;95.80;;;;;;4879282;29;20124;-75
2023/08/02 10:06:46;;;;;;;1.83;1.05;;;27.20;94.30;;;;;;4878820;29;20115;-73
2023/08/02 10:09:19;;;;;;;1.55;1.02;;;27.40;96.70;;;;;;4886040;29;20140;-75
2023/08/02 10:11:54;;;;;;;2.83;0.68;;;27.50;95.70;;;;;;4879132;29;20056;-72
2023/08/02 10:14:20;;;;;;;1.42;1.10;;;27.30;92.80;;;;;;4878775;29;20112;-76
2023/08/02 10:16:46;;;;;;;1.20;0.95;;;27.30;92.60;;;;;;4878566;29;20048;-76
2023/08/02 10:19:13;;;;;;;1.13;0.70;;;27.20;92.30;;;;;;4877963;29;20393;-72
2023/08/02 10:21:40;;;;;;;1.83;0.75;;;27.20;94.00;;;;;;4882366;29;20052;-75
2023/08/02 10:24:12;;;;;;;0.50;0.50;;;27.20;92.80;;;;;;4897259;29;20044;-76
2023/08/02 10:26:38;;;;;;;1.35;0.80;;;27.40;93.60;;;;;;4897554;29;20041;-74
2023/08/02 10:29:05;;;;;;;1.52;0.80;;;27.40;92.90;;;;;;4896254;29;20024;-72
2023/08/02 10:31:31;;;;;;;1.33;0.63;;;27.50;95.20;;;;;;4917395;29;20024;-71
2023/08/02 10:33:57;;;;;;;0.85;0.68;;;27.50;95.20;;;;;;4900774;29;20032;-72
2023/08/02 10:36:23;;;;;;;0.98;0.65;;;27.50;94.50;;;;;;4918267;29;20043;-72
2023/08/02 10:38:54;;;;;;;3.63;1.50;;;27.30;95.90;;;;;;4917025;29;20059;-73
2023/08/02 10:41:20;;;;;;;5.15;1.38;;;27.40;95.40;;;;;;4918219;29;20020;-72
2023/08/02 10:44:00;;;;;;;1.67;1.10;;;27.50;97.10;;;;;;4916804;29;20055;-76
2023/08/02 10:46:27;;;;;;;1.02;0.80;;;27.50;95.90;;;;;;4917085;29;20020;-71
2023/08/02 10:48:54;;;;;;;2.80;1.13;;;27.50;95.30;;;;;;4917445;29;20469;-75
2023/08/02 10:51:34;;;;;;;4.55;0.80;;;27.70;94.30;;;;;;4917593;29;20032;-73
2023/08/02 10:54:21;;;;;;;1.25;0.70;;;27.80;98.60;;;;;;4917334;29;20032;-76
2023/08/02 10:56:58;;;;;;;1.83;0.70;;;27.70;93.70;;;;;;4917582;29;20040;-74
2023/08/02 10:59:23;;;;;;;2.22;0.80;;;27.60;95.20;;;;;;4914665;29;20444;-76
2023/08/02 11:01:55;;;;;;;1.70;1.00;;;27.40;94.40;;;;;;4916632;29;20103;-74
2023/08/02 11:04:21;;;;;;;;;;;27.50;98.30;;;;;;4917763;29;20063;-74
2023/08/02 11:06:47;;;;;;;1.58;0.60;;;27.80;95.20;;;;;;4917581;29;20367;-76
2023/08/02 11:09:12;;;;;;;1.52;0.75;;;27.80;91.20;;;;;;4917662;29;20029;-73
2023/08/02 11:11:38;;;;;;;0.63;0.63;;;27.90;93.20;;;;;;4917050;29;20498;-73
2023/08/02 11:14:04;;;;;;;1.30;0.68;;;28.00;94.00;;;;;;4901027;29;20028;-72
2023/08/02 11:16:41;;;;;;;1.33;0.70;;;27.90;92.20;;;;;;4916711;29;20056;-76
2023/08/02 11:19:10;;;;;;;1.75;0.65;;;27.70;92.50;;;;;;4916689;29;20042;-76
2023/08/02 11:21:37;;;;;;;1.65;0.77;;;27.70;94.00;;;;;;4917355;29;20512;-72
2023/08/02 11:24:04;;;;;;;1.50;0.80;;;27.50;97.00;;;;;;4916945;29;20032;-74
2023/08/02 11:26:30;;;;;;;1.15;0.70;;;27.70;94.90;;;;;;4916548;29;20043;-72
2023/08/02 11:28:56;;;;;;;1.17;0.80;;;27.60;91.20;;;;;;4916535;29;20020;-74
2023/08/02 11:31:24;;;;;;;1.70;0.73;;;27.70;91.40;;;;;;4917424;29;20091;-71
2023/08/02 11:33:51;;;;;;;0.95;0.82;;;27.10;92.00;;;;;;4917006;29;20107;-76
2023/08/02 11:36:17;;;;;;;4.18;0.95;;;27.30;92.90;;;;;;4917202;29;20028;-72
2023/08/02 11:38:43;;;;;;;0.63;0.55;;;27.40;91.90;;;;;;4917086;29;20191;-72
2023/08/02 11:41:22;;;;;;;3.08;1.00;;;27.60;94.30;;;;;;4916944;29;20110;-73
2023/08/02 11:43:49;;;;;;;2.05;0.93;;;27.90;95.30;;;;;;4916629;29;20111;-77
2023/08/02 11:46:25;;;;;;;1.70;0.60;;;28.10;99.10;;;;;;4916867;29;20107;-72
2023/08/02 11:48:52;;;;;;;1.58;0.80;;;28.20;95.60;;;;;;4899160;29;20400;-72
2023/08/02 11:51:20;;;;;;;0.98;0.57;;;28.30;99.90;;;;;;4916252;29;20024;-76
2023/08/02 11:53:51;;;;;;;0.95;0.70;;;28.20;94.40;;;;;;4915794;29;20020;-72
2023/08/02 11:56:20;;;;;;;1.38;0.88;;;28.20;91.70;;;;;;4916715;29;20536;-72
2023/08/02 11:58:46;;;;;;;2.08;0.77;;;28.20;93.70;;;;;;4916148;29;20032;-78
2023/08/02 12:01:15;;;;;;;2.38;0.80;;;28.20;93.10;;;;;;4913848;29;20051;-72
2023/08/02 12:04:01;;;;;;;1.67;0.70;;;28.00;93.10;;;;;;4907523;29;20510;-72
2023/08/02 12:06:43;;;;;;;1.23;0.90;;;27.10;98.00;;;;;;4916627;29;20078;-77
2023/08/02 12:09:09;;;;;;;1.00;0.50;;;27.10;93.20;;;;;;4916044;29;20455;-70
2023/08/02 12:11:35;;;;;;;3.47;0.80;;;27.00;91.00;;;;;;4916866;29;20111;-73
2023/08/02 12:14:02;;;;;;;1.63;0.98;;;27.10;92.20;;;;;;4915717;29;20055;-72
2023/08/02 12:16:48;;;;;;;2.97;0.88;;;27.10;93.70;;;;;;4916633;29;20020;-71
2023/08/02 12:19:14;;;;;;;1.67;1.00;;;26.70;94.30;;;;;;4916599;29;20032;-72
2023/08/02 12:21:43;;;;;;;1.33;0.55;;;26.50;94.60;;;;;;4907871;29;20047;-70
2023/08/02 12:24:13;;;;;;;0.70;0.60;;;26.00;92.10;;;;;;4935651;29;20046;-71
2023/08/02 12:26:39;;;;;;;3.00;0.70;;;26.10;97.80;;;;;;4930419;29;20390;-77
2023/08/02 12:29:06;;;;;;;2.03;0.95;;;26.20;94.00;;;;;;4937031;29;20035;-75
2023/08/02 12:31:42;;;;;;;1.27;0.80;;;26.20;93.60;;;;;;4928581;29;20063;-72
2023/08/02 12:34:09;;;;;;;2.22;0.70;;;26.30;92.80;;;;;;4924719;29;20036;-72
2023/08/02 12:36:35;;;;;;;1.92;0.80;;;26.40;93.10;;;;;;4924500;29;20110;-76
2023/08/02 12:39:00;;;;;;;2.90;0.70;;;26.50;93.90;;;;;;4924421;29;20035;-72
2023/08/02 12:41:28;;;;;;;1.50;1.08;;;26.60;95.80;;;;;;4933634;29;20383;-71
2023/08/02 12:43:54;;;;;;;6.00;1.38;;;26.60;99.90;;;;;;4920137;29;20424;-71
2023/08/02 12:46:20;;;;;;;3.28;0.93;;;26.60;97.10;;;;;;4935186;29;20023;-74
2023/08/02 12:48:48;;;;;;;3.08;1.02;;;26.60;93.00;;;;;;4929561;29;20039;-71
2023/08/02 12:51:14;;;;;;;4.63;1.50;;;26.50;92.40;;;;;;4935221;29;20512;-70